createdAt,value
2022-07-25T08:23:23.936Z,101
2022-07-25T08:25:39.050Z,96.1
2022-07-25T08:27:54.275Z,96.1
2022-07-25T08:30:20.337Z,96.4
2022-07-25T08:32:34.889Z,97.4
2022-07-25T08:34:49.757Z,98.3
2022-07-25T08:37:05.322Z,99
2022-07-25T08:39:19.530Z,99.8
2022-07-25T08:41:34.708Z,100.4
2022-07-25T08:43:49.182Z,101.4
2022-07-25T08:46:04.096Z,102.3
2022-07-25T08:50:33.702Z,103.2
2022-07-25T08:52:48.010Z,104.1
2022-07-25T08:55:19.817Z,104.8
2022-07-25T08:57:34.636Z,104.9
2022-07-25T08:59:49.344Z,106.3
2022-07-25T09:02:04.573Z,106.8
2022-07-25T09:04:19.068Z,107.4
2022-07-25T09:06:34.025Z,108.6
2022-07-25T09:08:48.779Z,109.3
2022-07-25T09:11:03.733Z,109.2
2022-07-25T09:13:18.569Z,109.3
2022-07-25T09:15:32.884Z,110.3
2022-07-25T09:20:03.111Z,111.1
2022-07-25T09:22:17.965Z,111.6
2022-07-25T09:24:32.810Z,112.4
2022-07-25T09:26:47.698Z,112.4
2022-07-25T09:29:02.493Z,113.7
2022-07-25T09:31:17.372Z,114
2022-07-25T09:33:32.128Z,114.3
2022-07-25T09:35:46.953Z,115.2
2022-07-25T09:38:01.950Z,116.3
2022-07-25T09:40:16.738Z,116.3
2022-07-25T09:44:46.479Z,116.9
2022-07-25T09:47:01.402Z,115.8
2022-07-25T09:49:16.187Z,116.2
2022-07-25T09:51:31.097Z,117.9
2022-07-25T09:53:45.307Z,116.7
2022-07-25T09:56:00.570Z,116.9
2022-07-25T09:58:15.585Z,118.6
2022-07-25T10:00:29.844Z,118.6
2022-07-25T10:02:45.250Z,118.1
2022-07-25T10:05:00.140Z,116.9
2022-07-25T10:07:14.928Z,117.3
2022-07-25T10:09:30.092Z,118.1
2022-07-25T10:11:44.769Z,119
2022-07-25T10:13:59.618Z,119.1
2022-07-25T10:16:13.802Z,119.3
2022-07-25T10:18:29.908Z,118.3
2022-07-25T10:20:44.013Z,117.9
2022-07-25T10:23:12.721Z,117.6
2022-07-25T10:27:42.265Z,116.9
2022-07-25T10:32:12.213Z,114.6
2022-07-25T10:34:27.233Z,113.9
2022-07-25T10:36:42.215Z,113.3
2022-07-25T10:38:57.255Z,113.6
2022-07-25T10:41:12.117Z,113.8
2022-07-25T10:45:42.233Z,113.7
2022-07-25T10:47:57.112Z,113.1
2022-07-25T10:52:58.059Z,111.8
2022-07-25T10:55:12.959Z,111
2022-07-25T11:00:02.801Z,109.9
2022-07-25T11:02:17.767Z,109.6
2022-07-25T11:04:32.777Z,109.4
2022-07-25T11:06:47.571Z,109.3
2022-07-25T11:09:26.805Z,107.9
2022-07-25T11:11:36.894Z,108.2
2022-07-25T11:13:52.099Z,108
2022-07-25T11:16:06.739Z,107.7
2022-07-25T11:18:22.023Z,106.5
2022-07-25T11:20:36.913Z,106.3
2022-07-25T11:22:51.650Z,105.8
2022-07-25T11:25:06.806Z,105.4
2022-07-25T11:27:21.632Z,105.9
2022-07-25T11:29:36.705Z,106.1
2022-07-25T11:31:51.712Z,106.8
2022-07-25T11:34:06.616Z,107.3
2022-07-25T11:36:21.416Z,107.9
2022-07-25T11:40:52.198Z,108.1
2022-07-25T11:43:06.151Z,107.8
2022-07-25T11:45:21.288Z,108
2022-07-25T11:47:36.254Z,108.1
2022-07-25T11:49:51.272Z,108.5
2022-07-25T11:52:06.031Z,108.8
2022-07-25T11:56:49.685Z,110.2
2022-07-25T11:59:05.442Z,110.4
2022-07-25T12:01:19.391Z,110.9
2022-07-25T12:03:34.279Z,111.3
2022-07-25T12:05:49.149Z,111.2
2022-07-25T12:08:03.992Z,111.9
2022-07-25T12:10:18.855Z,110.9
2022-07-25T12:12:34.140Z,110.6
2022-07-25T12:17:03.670Z,111
2022-07-25T12:19:18.171Z,111.3
2022-07-25T12:21:32.943Z,111
2022-07-25T12:23:47.930Z,111
2022-07-25T12:26:02.689Z,110.7
2022-07-25T12:28:17.630Z,111.5
2022-07-25T12:32:47.272Z,113.3
2022-07-25T12:35:02.193Z,113.9
2022-07-25T12:37:17.040Z,114.6
2022-07-25T12:39:31.896Z,114.6
2022-07-25T12:44:01.504Z,115.8
2022-07-25T12:50:46.090Z,118.2
2022-07-25T12:53:00.841Z,118
2022-07-25T12:57:30.638Z,118.8
2022-07-25T12:59:45.487Z,118.7
2022-07-25T13:02:00.486Z,118.2
2022-07-25T13:04:15.315Z,118.6
2022-07-25T13:08:45.096Z,118.8
2022-07-25T13:13:14.591Z,118.8
2022-07-25T13:15:29.440Z,118.4
2022-07-25T13:19:59.196Z,118.4
2022-07-25T13:22:13.942Z,117.8
2022-07-25T13:24:28.821Z,117.6
2022-07-25T13:26:43.701Z,117.3
2022-07-25T13:29:00.020Z,117.6
2022-07-25T13:33:28.347Z,118.4
2022-07-25T13:35:43.146Z,118.4
2022-07-25T13:37:57.866Z,118.6
2022-07-25T13:40:12.857Z,118.4
2022-07-25T13:42:28.162Z,119.1
2022-07-25T13:44:42.463Z,119.3
2022-07-25T13:46:57.390Z,119.9
2022-07-25T13:49:31.287Z,119.3
2022-07-25T13:51:45.775Z,119.6
2022-07-25T13:54:00.781Z,119.9
2022-07-25T13:56:15.730Z,120.4
2022-07-25T13:58:30.726Z,120.9
2022-07-25T14:00:45.659Z,121.4
2022-07-25T14:03:00.513Z,121.1
2022-07-25T14:05:15.544Z,121.6
2022-07-25T14:07:30.592Z,122
2022-07-25T14:09:45.573Z,122.1
2022-07-25T14:12:00.484Z,122.4
2022-07-25T14:14:15.348Z,122.8
2022-07-25T14:16:30.265Z,122.9
2022-07-25T14:18:45.341Z,123.4
2022-07-25T14:21:00.164Z,123.2
2022-07-25T14:23:14.958Z,122.8
2022-07-25T14:25:30.017Z,122.4
2022-07-25T14:27:44.869Z,122.4
2022-07-25T14:30:00.280Z,123.1
2022-07-25T14:32:14.966Z,123.6
2022-07-25T14:36:44.866Z,123.8
2022-07-25T14:38:59.938Z,124
2022-07-25T14:41:15.089Z,124.1
2022-07-25T14:43:29.970Z,124.3
2022-07-25T14:45:44.668Z,124.6
2022-07-25T14:47:59.579Z,124.8
2022-07-25T14:50:14.782Z,124.4
2022-07-25T14:54:44.784Z,124.8
2022-07-25T14:56:59.472Z,124.6
2022-07-25T14:59:14.627Z,124.6
2022-07-25T15:01:29.558Z,124.4
2022-07-25T15:03:44.512Z,124.2
2022-07-25T15:05:59.359Z,123.9
2022-07-25T15:12:54.353Z,122.6
2022-07-25T15:15:32.547Z,122.3
2022-07-25T15:17:47.137Z,121.8
2022-07-25T15:20:17.247Z,121.1
2022-07-25T15:22:32.046Z,121
2022-07-25T15:32:32.645Z,119.4
2022-07-25T15:34:47.353Z,118.9
2022-07-25T15:37:02.294Z,118.4
2022-07-25T15:41:32.240Z,117.6
2022-07-25T15:43:46.907Z,116.8
2022-07-25T15:46:20.150Z,116.3
2022-07-25T15:48:34.774Z,115.9
2022-07-25T15:53:04.431Z,115.3
2022-07-25T15:55:19.194Z,114.3
2022-07-25T15:57:34.082Z,113.6
2022-07-25T16:02:03.761Z,112.3
2022-07-25T16:04:18.771Z,111.5
2022-07-25T16:06:33.599Z,110.7
2022-07-25T16:08:48.427Z,110.1
2022-07-25T16:11:03.114Z,109.6
2022-07-25T16:13:17.976Z,109.2
2022-07-25T16:15:32.837Z,108.3
2022-07-25T16:17:47.711Z,107.4
2022-07-25T16:20:02.574Z,106.9
2022-07-25T16:22:17.588Z,106.3
2022-07-25T16:24:32.297Z,105.6
2022-07-25T16:29:01.979Z,103.8
2022-07-25T16:31:16.780Z,103.1
2022-07-25T16:35:46.635Z,101.6
2022-07-25T16:38:01.376Z,101.1
2022-07-25T16:40:16.200Z,100.1
2022-07-25T16:42:31.025Z,99.4
2022-07-25T16:44:45.930Z,98.1
